sensor_id;sensor_type;location;lat;lon;timestamp;pressure;altitude;pressure_sealevel;temperature;humidity
49341;BME280;35209;51.050;13.678;2023-05-11T00:03:02;99709.50;;;12.77;100.00
49341;BME280;35209;51.050;13.678;2023-05-11T00:08:04;99708.66;;;12.77;100.00
49341;BME280;35209;51.050;13.678;2023-05-11T00:13:06;99705.19;;;12.56;100.00
49341;BME280;35209;51.050;13.678;2023-05-11T00:18:07;99708.19;;;12.48;100.00
49341;BME280;35209;51.050;13.678;2023-05-11T00:23:09;99706.97;;;12.16;100.00
49341;BME280;35209;51.050;13.678;2023-05-11T00:28:11;99695.41;;;12.00;100.00
49341;BME280;35209;51.050;13.678;2023-05-11T00:33:13;99697.84;;;12.04;100.00
49341;BME280;35209;51.050;13.678;2023-05-11T00:38:15;99696.69;;;11.90;100.00
49341;BME280;35209;51.050;13.678;2023-05-11T00:43:17;99697.84;;;12.04;100.00
49341;BME280;35209;51.050;13.678;2023-05-11T00:48:18;99702.22;;;12.04;100.00
49341;BME280;35209;51.050;13.678;2023-05-11T00:53:20;99693.28;;;11.88;100.00
49341;BME280;35209;51.050;13.678;2023-05-11T00:58:22;99698.94;;;11.99;100.00
49341;BME280;35209;51.050;13.678;2023-05-11T01:03:24;99705.88;;;11.79;100.00
49341;BME280;35209;51.050;13.678;2023-05-11T01:08:40;99702.72;;;11.49;100.00
49341;BME280;35209;51.050;13.678;2023-05-11T01:13:48;99701.81;;;11.50;100.00
49341;BME280;35209;51.050;13.678;2023-05-11T01:24:11;99700.09;;;11.49;100.00
49341;BME280;35209;51.050;13.678;2023-05-11T01:34:43;99699.00;;;11.33;100.00
49341;BME280;35209;51.050;13.678;2023-05-11T01:39:57;99708.47;;;11.15;100.00
49341;BME280;35209;51.050;13.678;2023-05-11T01:45:03;99701.28;;;11.20;100.00
49341;BME280;35209;51.050;13.678;2023-05-11T01:50:07;99704.69;;;11.22;100.00
49341;BME280;35209;51.050;13.678;2023-05-11T01:55:13;99710.88;;;10.99;100.00
49341;BME280;35209;51.050;13.678;2023-05-11T02:00:18;99712.44;;;10.81;100.00
49341;BME280;35209;51.050;13.678;2023-05-11T02:05:22;99710.16;;;11.18;100.00
49341;BME280;35209;51.050;13.678;2023-05-11T02:10:26;99706.94;;;11.09;100.00
49341;BME280;35209;51.050;13.678;2023-05-11T02:15:29;99707.94;;;11.07;100.00
49341;BME280;35209;51.050;13.678;2023-05-11T02:20:32;99708.09;;;10.80;100.00
49341;BME280;35209;51.050;13.678;2023-05-11T02:25:35;99705.09;;;10.66;100.00
49341;BME280;35209;51.050;13.678;2023-05-11T02:30:44;99712.25;;;10.86;100.00
49341;BME280;35209;51.050;13.678;2023-05-11T02:35:49;99712.56;;;11.00;100.00
49341;BME280;35209;51.050;13.678;2023-05-11T02:40:54;99715.66;;;10.88;100.00
49341;BME280;35209;51.050;13.678;2023-05-11T02:46:01;99710.91;;;10.76;100.00
49341;BME280;35209;51.050;13.678;2023-05-11T02:51:06;99711.19;;;10.45;100.00
49341;BME280;35209;51.050;13.678;2023-05-11T02:56:14;99707.91;;;10.61;100.00
49341;BME280;35209;51.050;13.678;2023-05-11T03:01:17;99707.53;;;10.22;100.00
49341;BME280;35209;51.050;13.678;2023-05-11T03:06:20;99712.00;;;10.20;100.00
49341;BME280;35209;51.050;13.678;2023-05-11T03:11:22;99704.34;;;10.39;100.00
49341;BME280;35209;51.050;13.678;2023-05-11T03:16:25;99712.66;;;10.52;100.00
49341;BME280;35209;51.050;13.678;2023-05-11T03:21:28;99710.63;;;10.35;100.00
49341;BME280;35209;51.050;13.678;2023-05-11T03:26:31;99705.19;;;10.40;100.00
49341;BME280;35209;51.050;13.678;2023-05-11T03:31:33;99704.50;;;10.59;100.00
49341;BME280;35209;51.050;13.678;2023-05-11T03:36:37;99705.84;;;10.70;100.00
49341;BME280;35209;51.050;13.678;2023-05-11T03:41:41;99706.13;;;10.62;100.00
49341;BME280;35209;51.050;13.678;2023-05-11T03:46:46;99713.03;;;10.88;100.00
49341;BME280;35209;51.050;13.678;2023-05-11T03:51:51;99711.72;;;11.00;100.00
49341;BME280;35209;51.050;13.678;2023-05-11T03:56:55;99710.72;;;11.26;96.28
49341;BME280;35209;51.050;13.678;2023-05-11T04:01:57;99707.69;;;11.57;90.66
49341;BME280;35209;51.050;13.678;2023-05-11T04:06:59;99712.75;;;11.61;90.63
49341;BME280;35209;51.050;13.678;2023-05-11T04:12:01;99718.63;;;11.68;90.86
49341;BME280;35209;51.050;13.678;2023-05-11T04:17:03;99710.59;;;11.71;90.66
49341;BME280;35209;51.050;13.678;2023-05-11T04:22:04;99721.44;;;11.85;89.47
49341;BME280;35209;51.050;13.678;2023-05-11T04:27:06;99709.09;;;11.88;88.73
49341;BME280;35209;51.050;13.678;2023-05-11T04:32:08;99712.63;;;12.07;84.70
49341;BME280;35209;51.050;13.678;2023-05-11T04:37:09;99714.94;;;11.94;88.32
49341;BME280;35209;51.050;13.678;2023-05-11T04:42:12;99722.38;;;12.25;84.13
49341;BME280;35209;51.050;13.678;2023-05-11T04:47:14;99723.09;;;12.29;83.33
49341;BME280;35209;51.050;13.678;2023-05-11T04:52:16;99723.63;;;12.17;88.39
49341;BME280;35209;51.050;13.678;2023-05-11T04:57:22;99730.88;;;12.32;88.30
49341;BME280;35209;51.050;13.678;2023-05-11T05:02:24;99727.19;;;12.75;82.82
49341;BME280;35209;51.050;13.678;2023-05-11T05:07:26;99729.84;;;12.94;79.80
49341;BME280;35209;51.050;13.678;2023-05-11T05:12:29;99725.97;;;13.01;79.30
49341;BME280;35209;51.050;13.678;2023-05-11T05:17:31;99726.19;;;13.16;77.80
49341;BME280;35209;51.050;13.678;2023-05-11T05:22:33;99732.97;;;13.40;74.72
49341;BME280;35209;51.050;13.678;2023-05-11T05:27:36;99735.66;;;13.57;74.31
49341;BME280;35209;51.050;13.678;2023-05-11T05:32:41;99735.34;;;13.81;72.99
49341;BME280;35209;51.050;13.678;2023-05-11T05:37:43;99738.81;;;14.00;72.87
49341;BME280;35209;51.050;13.678;2023-05-11T05:42:45;99744.72;;;14.23;71.49
49341;BME280;35209;51.050;13.678;2023-05-11T05:47:51;99740.75;;;14.31;70.15
49341;BME280;35209;51.050;13.678;2023-05-11T05:52:54;99746.66;;;14.19;72.70
49341;BME280;35209;51.050;13.678;2023-05-11T05:57:58;99749.91;;;14.59;69.64
49341;BME280;35209;51.050;13.678;2023-05-11T06:03:00;99752.22;;;14.65;69.56
49341;BME280;35209;51.050;13.678;2023-05-11T06:08:02;99746.75;;;15.17;68.54
49341;BME280;35209;51.050;13.678;2023-05-11T06:13:12;99748.63;;;15.78;64.42
49341;BME280;35209;51.050;13.678;2023-05-11T06:18:16;99746.97;;;16.22;61.71
49341;BME280;35209;51.050;13.678;2023-05-11T06:23:18;99749.63;;;16.36;61.13
49341;BME280;35209;51.050;13.678;2023-05-11T06:28:21;99752.50;;;16.47;63.04
49341;BME280;35209;51.050;13.678;2023-05-11T06:33:28;99752.25;;;16.66;62.13
49341;BME280;35209;51.050;13.678;2023-05-11T06:38:30;99752.44;;;16.77;58.12
49341;BME280;35209;51.050;13.678;2023-05-11T06:43:32;99743.84;;;16.74;59.36
49341;BME280;35209;51.050;13.678;2023-05-11T06:48:36;99748.19;;;16.89;59.88
49341;BME280;35209;51.050;13.678;2023-05-11T06:53:37;99747.03;;;17.07;57.07
49341;BME280;35209;51.050;13.678;2023-05-11T06:58:39;99746.78;;;17.39;57.18
49341;BME280;35209;51.050;13.678;2023-05-11T07:03:41;99742.44;;;17.65;54.76
49341;BME280;35209;51.050;13.678;2023-05-11T07:08:42;99749.25;;;17.69;54.24
49341;BME280;35209;51.050;13.678;2023-05-11T07:13:44;99746.56;;;17.83;53.75
49341;BME280;35209;51.050;13.678;2023-05-11T07:18:46;99752.72;;;18.11;54.96
49341;BME280;35209;51.050;13.678;2023-05-11T07:23:48;99754.66;;;18.34;52.02
49341;BME280;35209;51.050;13.678;2023-05-11T07:28:49;99746.56;;;18.61;52.11
49341;BME280;35209;51.050;13.678;2023-05-11T07:33:51;99754.63;;;19.24;50.46
49341;BME280;35209;51.050;13.678;2023-05-11T07:38:53;99760.66;;;18.76;50.54
49341;BME280;35209;51.050;13.678;2023-05-11T07:43:55;99762.44;;;18.37;50.99
49341;BME280;35209;51.050;13.678;2023-05-11T07:48:57;99751.09;;;18.74;50.88
49341;BME280;35209;51.050;13.678;2023-05-11T07:54:15;99753.97;;;19.20;49.05
49341;BME280;35209;51.050;13.678;2023-05-11T07:59:20;99755.13;;;19.29;50.42
49341;BME280;35209;51.050;13.678;2023-05-11T08:04:22;99752.13;;;19.33;48.44
49341;BME280;35209;51.050;13.678;2023-05-11T08:09:23;99764.19;;;19.39;49.23
49341;BME280;35209;51.050;13.678;2023-05-11T08:14:25;99768.59;;;19.51;48.78
49341;BME280;35209;51.050;13.678;2023-05-11T08:19:27;99765.59;;;19.56;47.96
49341;BME280;35209;51.050;13.678;2023-05-11T08:24:28;99762.44;;;19.51;46.59
49341;BME280;35209;51.050;13.678;2023-05-11T08:29:30;99765.59;;;19.93;47.14
49341;BME280;35209;51.050;13.678;2023-05-11T08:34:32;99765.47;;;19.94;46.25
49341;BME280;35209;51.050;13.678;2023-05-11T08:39:34;99768.63;;;20.23;47.34
49341;BME280;35209;51.050;13.678;2023-05-11T08:44:48;99761.25;;;20.38;45.64
49341;BME280;35209;51.050;13.678;2023-05-11T08:49:50;99768.41;;;20.95;45.49
49341;BME280;35209;51.050;13.678;2023-05-11T08:54:55;99766.69;;;20.83;44.00
49341;BME280;35209;51.050;13.678;2023-05-11T08:59:57;99770.81;;;20.76;44.80
49341;BME280;35209;51.050;13.678;2023-05-11T09:05:01;99762.22;;;20.95;43.53
49341;BME280;35209;51.050;13.678;2023-05-11T09:10:05;99764.00;;;21.28;42.82
49341;BME280;35209;51.050;13.678;2023-05-11T09:15:08;99768.63;;;21.48;42.54
49341;BME280;35209;51.050;13.678;2023-05-11T09:20:10;99761.16;;;22.06;43.09
49341;BME280;35209;51.050;13.678;2023-05-11T09:25:14;99750.69;;;22.14;44.81
49341;BME280;35209;51.050;13.678;2023-05-11T09:30:20;99748.72;;;22.37;42.34
49341;BME280;35209;51.050;13.678;2023-05-11T09:35:32;99755.19;;;22.35;40.78
49341;BME280;35209;51.050;13.678;2023-05-11T09:40:48;99745.06;;;22.59;39.77
49341;BME280;35209;51.050;13.678;2023-05-11T09:45:53;99756.00;;;22.77;38.80
49341;BME280;35209;51.050;13.678;2023-05-11T09:51:04;99757.13;;;23.05;37.73
49341;BME280;35209;51.050;13.678;2023-05-11T09:56:06;99767.56;;;22.99;36.83
49341;BME280;35209;51.050;13.678;2023-05-11T10:01:08;99754.59;;;22.83;38.04
49341;BME280;35209;51.050;13.678;2023-05-11T10:06:09;99749.00;;;22.13;38.15
49341;BME280;35209;51.050;13.678;2023-05-11T10:11:11;99747.00;;;22.57;37.88
49341;BME280;35209;51.050;13.678;2023-05-11T10:16:14;99747.25;;;23.06;37.89
49341;BME280;35209;51.050;13.678;2023-05-11T10:21:17;99747.97;;;23.48;36.42
49341;BME280;35209;51.050;13.678;2023-05-11T10:26:18;99758.28;;;23.62;37.25
49341;BME280;35209;51.050;13.678;2023-05-11T10:31:21;99745.03;;;23.61;35.94
49341;BME280;35209;51.050;13.678;2023-05-11T10:36:24;99744.84;;;23.43;34.42
49341;BME280;35209;51.050;13.678;2023-05-11T11:03:10;99747.03;;;24.07;33.04
49341;BME280;35209;51.050;13.678;2023-05-11T11:08:12;99753.31;;;23.48;34.01
49341;BME280;35209;51.050;13.678;2023-05-11T11:13:15;99739.28;;;23.75;36.57
49341;BME280;35209;51.050;13.678;2023-05-11T11:18:29;99746.19;;;23.97;34.35
49341;BME280;35209;51.050;13.678;2023-05-11T11:23:50;99751.84;;;24.23;34.41
49341;BME280;35209;51.050;13.678;2023-05-11T11:39:49;99749.16;;;23.94;35.19
49341;BME280;35209;51.050;13.678;2023-05-11T11:44:51;99750.16;;;24.03;35.89
49341;BME280;35209;51.050;13.678;2023-05-11T11:49:53;99759.34;;;24.00;32.74
49341;BME280;35209;51.050;13.678;2023-05-11T11:55:00;99760.13;;;23.62;34.64
49341;BME280;35209;51.050;13.678;2023-05-11T12:00:03;99755.94;;;24.08;34.70
49341;BME280;35209;51.050;13.678;2023-05-11T12:05:14;99762.41;;;23.66;34.24
49341;BME280;35209;51.050;13.678;2023-05-11T12:10:21;99764.00;;;22.67;35.42
49341;BME280;35209;51.050;13.678;2023-05-11T12:15:24;99768.66;;;22.96;39.51
49341;BME280;35209;51.050;13.678;2023-05-11T12:20:26;99765.03;;;22.76;35.14
49341;BME280;35209;51.050;13.678;2023-05-11T12:25:27;99775.22;;;22.61;37.61
49341;BME280;35209;51.050;13.678;2023-05-11T12:30:33;99767.47;;;22.37;38.59
49341;BME280;35209;51.050;13.678;2023-05-11T12:35:35;99772.88;;;21.94;38.42
49341;BME280;35209;51.050;13.678;2023-05-11T12:40:38;99771.03;;;21.62;39.68
49341;BME280;35209;51.050;13.678;2023-05-11T12:45:41;99767.94;;;21.35;39.46
49341;BME280;35209;51.050;13.678;2023-05-11T12:50:44;99766.19;;;21.23;39.54
49341;BME280;35209;51.050;13.678;2023-05-11T12:55:57;99778.59;;;21.01;38.71
49341;BME280;35209;51.050;13.678;2023-05-11T13:00:59;99774.03;;;20.46;38.55
49341;BME280;35209;51.050;13.678;2023-05-11T13:11:21;99776.28;;;20.28;40.38
49341;BME280;35209;51.050;13.678;2023-05-11T13:16:30;99782.34;;;20.30;40.88
49341;BME280;35209;51.050;13.678;2023-05-11T13:21:33;99770.19;;;20.61;40.32
49341;BME280;35209;51.050;13.678;2023-05-11T13:26:34;99772.78;;;20.96;40.32
49341;BME280;35209;51.050;13.678;2023-05-11T13:31:44;99773.25;;;21.01;39.54
49341;BME280;35209;51.050;13.678;2023-05-11T13:36:46;99765.13;;;21.14;36.94
49341;BME280;35209;51.050;13.678;2023-05-11T13:41:48;99761.56;;;21.25;38.11
49341;BME280;35209;51.050;13.678;2023-05-11T13:46:49;99762.59;;;21.35;37.84
49341;BME280;35209;51.050;13.678;2023-05-11T13:51:51;99754.09;;;21.73;37.07
49341;BME280;35209;51.050;13.678;2023-05-11T13:56:53;99755.38;;;21.90;37.36
49341;BME280;35209;51.050;13.678;2023-05-11T14:01:55;99740.56;;;22.07;37.14
49341;BME280;35209;51.050;13.678;2023-05-11T14:06:57;99739.84;;;22.37;36.97
49341;BME280;35209;51.050;13.678;2023-05-11T14:11:59;99744.66;;;22.43;36.50
49341;BME280;35209;51.050;13.678;2023-05-11T14:17:01;99746.78;;;22.07;34.34
49341;BME280;35209;51.050;13.678;2023-05-11T14:22:03;99737.06;;;22.06;34.29
49341;BME280;35209;51.050;13.678;2023-05-11T14:27:04;99725.00;;;21.80;34.33
49341;BME280;35209;51.050;13.678;2023-05-11T14:32:06;99725.09;;;21.57;34.85
49341;BME280;35209;51.050;13.678;2023-05-11T14:37:08;99728.22;;;21.74;34.77
49341;BME280;35209;51.050;13.678;2023-05-11T14:42:10;99724.72;;;21.62;35.31
49341;BME280;35209;51.050;13.678;2023-05-11T14:47:11;99725.88;;;21.69;34.76
49341;BME280;35209;51.050;13.678;2023-05-11T14:52:13;99731.38;;;21.67;35.61
49341;BME280;35209;51.050;13.678;2023-05-11T14:57:15;99726.75;;;21.70;35.67
49341;BME280;35209;51.050;13.678;2023-05-11T15:02:17;99718.06;;;21.56;34.27
49341;BME280;35209;51.050;13.678;2023-05-11T15:07:19;99733.13;;;21.57;35.00
49341;BME280;35209;51.050;13.678;2023-05-11T15:12:22;99739.81;;;21.29;35.28
49341;BME280;35209;51.050;13.678;2023-05-11T15:17:25;99744.94;;;21.32;35.66
49341;BME280;35209;51.050;13.678;2023-05-11T15:22:26;99747.75;;;21.08;34.78
49341;BME280;35209;51.050;13.678;2023-05-11T15:27:28;99762.19;;;20.83;34.82
49341;BME280;35209;51.050;13.678;2023-05-11T15:32:30;99764.25;;;20.80;34.76
49341;BME280;35209;51.050;13.678;2023-05-11T15:37:32;99753.34;;;20.83;35.90
49341;BME280;35209;51.050;13.678;2023-05-11T15:42:34;99767.19;;;20.99;35.38
49341;BME280;35209;51.050;13.678;2023-05-11T15:47:36;99754.66;;;21.11;34.91
49341;BME280;35209;51.050;13.678;2023-05-11T15:52:38;99761.59;;;21.02;34.92
49341;BME280;35209;51.050;13.678;2023-05-11T15:57:43;99760.97;;;21.10;35.20
49341;BME280;35209;51.050;13.678;2023-05-11T16:02:45;99768.16;;;21.09;34.48
49341;BME280;35209;51.050;13.678;2023-05-11T16:07:49;99766.69;;;21.28;34.37
49341;BME280;35209;51.050;13.678;2023-05-11T16:12:51;99767.19;;;20.99;35.44
49341;BME280;35209;51.050;13.678;2023-05-11T16:17:53;99770.81;;;20.98;33.91
49341;BME280;35209;51.050;13.678;2023-05-11T16:22:54;99764.88;;;20.72;34.87
49341;BME280;35209;51.050;13.678;2023-05-11T16:27:56;99769.13;;;20.75;34.69
49341;BME280;35209;51.050;13.678;2023-05-11T16:32:58;99766.81;;;20.70;35.46
49341;BME280;35209;51.050;13.678;2023-05-11T16:37:59;99770.81;;;20.64;34.88
49341;BME280;35209;51.050;13.678;2023-05-11T16:43:01;99762.47;;;20.34;35.91
49341;BME280;35209;51.050;13.678;2023-05-11T16:48:03;99769.22;;;20.27;36.20
49341;BME280;35209;51.050;13.678;2023-05-11T16:53:05;99772.88;;;20.26;35.22
49341;BME280;35209;51.050;13.678;2023-05-11T16:58:06;99776.00;;;20.20;35.29
49341;BME280;35209;51.050;13.678;2023-05-11T17:03:08;99776.72;;;20.22;34.73
49341;BME280;35209;51.050;13.678;2023-05-11T17:08:10;99787.72;;;20.06;34.95
49341;BME280;35209;51.050;13.678;2023-05-11T17:13:12;99784.09;;;19.83;35.55
49341;BME280;35209;51.050;13.678;2023-05-11T17:18:14;99787.78;;;19.69;36.37
49341;BME280;35209;51.050;13.678;2023-05-11T17:23:16;99782.56;;;19.91;35.85
49341;BME280;35209;51.050;13.678;2023-05-11T17:28:17;99791.66;;;19.89;35.73
49341;BME280;35209;51.050;13.678;2023-05-11T17:33:19;99797.66;;;19.80;35.94
49341;BME280;35209;51.050;13.678;2023-05-11T17:38:21;99790.03;;;19.86;36.02
49341;BME280;35209;51.050;13.678;2023-05-11T17:43:22;99806.56;;;19.55;37.15
49341;BME280;35209;51.050;13.678;2023-05-11T17:48:24;99803.94;;;19.42;37.16
49341;BME280;35209;51.050;13.678;2023-05-11T17:53:26;99807.69;;;19.39;37.40
49341;BME280;35209;51.050;13.678;2023-05-11T17:58:28;99813.97;;;19.38;37.18
49341;BME280;35209;51.050;13.678;2023-05-11T18:03:29;99822.41;;;19.32;38.34
49341;BME280;35209;51.050;13.678;2023-05-11T18:08:31;99831.81;;;19.12;38.04
49341;BME280;35209;51.050;13.678;2023-05-11T18:13:34;99835.72;;;18.69;39.27
49341;BME280;35209;51.050;13.678;2023-05-11T18:18:36;99841.38;;;18.77;38.36
49341;BME280;35209;51.050;13.678;2023-05-11T18:23:38;99844.59;;;18.82;38.20
49341;BME280;35209;51.050;13.678;2023-05-11T18:28:39;99852.09;;;18.62;38.95
49341;BME280;35209;51.050;13.678;2023-05-11T18:33:41;99853.69;;;18.52;39.27
49341;BME280;35209;51.050;13.678;2023-05-11T18:38:43;99859.63;;;18.43;39.38
49341;BME280;35209;51.050;13.678;2023-05-11T18:43:45;99862.19;;;18.45;39.17
49341;BME280;35209;51.050;13.678;2023-05-11T18:48:48;99869.34;;;18.17;40.44
49341;BME280;35209;51.050;13.678;2023-05-11T18:53:50;99872.66;;;18.21;40.58
49341;BME280;35209;51.050;13.678;2023-05-11T18:58:52;99878.16;;;18.18;40.59
49341;BME280;35209;51.050;13.678;2023-05-11T19:03:54;99881.06;;;18.00;40.85
49341;BME280;35209;51.050;13.678;2023-05-11T19:08:56;99887.16;;;18.02;41.27
49341;BME280;35209;51.050;13.678;2023-05-11T19:13:58;99896.38;;;17.97;41.32
49341;BME280;35209;51.050;13.678;2023-05-11T19:19:00;99902.38;;;17.72;42.01
49341;BME280;35209;51.050;13.678;2023-05-11T19:24:03;99906.47;;;17.63;42.46
49341;BME280;35209;51.050;13.678;2023-05-11T19:29:05;99911.03;;;17.61;42.66
49341;BME280;35209;51.050;13.678;2023-05-11T19:34:07;99912.75;;;17.62;43.41
49341;BME280;35209;51.050;13.678;2023-05-11T19:39:09;99919.69;;;17.36;44.09
49341;BME280;35209;51.050;13.678;2023-05-11T19:44:11;99908.38;;;17.18;45.14
49341;BME280;35209;51.050;13.678;2023-05-11T19:49:13;99918.78;;;17.07;45.32
49341;BME280;35209;51.050;13.678;2023-05-11T19:54:16;99916.53;;;17.15;45.38
49341;BME280;35209;51.050;13.678;2023-05-11T19:59:21;99923.81;;;17.11;46.14
49341;BME280;35209;51.050;13.678;2023-05-11T20:04:22;99931.69;;;17.13;46.35
49341;BME280;35209;51.050;13.678;2023-05-11T20:09:24;99925.75;;;17.24;47.07
49341;BME280;35209;51.050;13.678;2023-05-11T20:14:26;99927.69;;;16.92;48.41
49341;BME280;35209;51.050;13.678;2023-05-11T20:19:28;99923.97;;;16.80;48.87
49341;BME280;35209;51.050;13.678;2023-05-11T20:24:30;99920.00;;;16.71;49.94
49341;BME280;35209;51.050;13.678;2023-05-11T20:29:31;99917.81;;;16.63;50.96
49341;BME280;35209;51.050;13.678;2023-05-11T20:34:33;99929.22;;;16.50;51.64
49341;BME280;35209;51.050;13.678;2023-05-11T20:39:36;99920.28;;;16.67;53.30
49341;BME280;35209;51.050;13.678;2023-05-11T20:44:37;99926.03;;;16.75;51.56
49341;BME280;35209;51.050;13.678;2023-05-11T20:49:39;99921.91;;;16.39;52.22
49341;BME280;35209;51.050;13.678;2023-05-11T20:54:40;99928.81;;;16.42;52.72
49341;BME280;35209;51.050;13.678;2023-05-11T20:59:42;99930.97;;;16.19;53.11
49341;BME280;35209;51.050;13.678;2023-05-11T21:04:47;99924.97;;;16.31;53.10
49341;BME280;35209;51.050;13.678;2023-05-11T21:09:48;99923.22;;;16.00;54.45
49341;BME280;35209;51.050;13.678;2023-05-11T21:14:50;99920.03;;;15.94;55.06
49341;BME280;35209;51.050;13.678;2023-05-11T21:19:52;99914.91;;;15.91;54.91
49341;BME280;35209;51.050;13.678;2023-05-11T21:24:53;99920.03;;;15.94;55.80
49341;BME280;35209;51.050;13.678;2023-05-11T21:29:55;99923.22;;;16.00;55.60
49341;BME280;35209;51.050;13.678;2023-05-11T21:34:57;99918.06;;;15.81;56.70
49341;BME280;35209;51.050;13.678;2023-05-11T21:39:59;99921.66;;;15.96;56.34
49341;BME280;35209;51.050;13.678;2023-05-11T21:45:02;99920.78;;;15.80;57.01
49341;BME280;35209;51.050;13.678;2023-05-11T21:50:05;99925.44;;;15.76;57.32
49341;BME280;35209;51.050;13.678;2023-05-11T21:55:08;99919.72;;;15.51;57.81
49341;BME280;35209;51.050;13.678;2023-05-11T22:00:10;99935.94;;;15.78;58.34
49341;BME280;35209;51.050;13.678;2023-05-11T22:05:19;99940.19;;;15.64;57.71
49341;BME280;35209;51.050;13.678;2023-05-11T22:10:21;99938.50;;;15.46;58.60
49341;BME280;35209;51.050;13.678;2023-05-11T22:15:24;99925.75;;;15.37;59.37
49341;BME280;35209;51.050;13.678;2023-05-11T22:20:25;99928.47;;;15.35;60.40
49341;BME280;35209;51.050;13.678;2023-05-11T22:25:27;99931.19;;;15.34;61.17
49341;BME280;35209;51.050;13.678;2023-05-11T22:30:29;99929.09;;;15.41;60.38
49341;BME280;35209;51.050;13.678;2023-05-11T22:35:31;99928.34;;;15.21;60.25
49341;BME280;35209;51.050;13.678;2023-05-11T22:40:32;99933.41;;;15.08;61.67
49341;BME280;35209;51.050;13.678;2023-05-11T22:45:34;99922.66;;;15.29;61.66
49341;BME280;35209;51.050;13.678;2023-05-11T22:50:40;99938.00;;;15.05;62.15
49341;BME280;35209;51.050;13.678;2023-05-11T22:55:46;99938.84;;;15.23;61.78
49341;BME280;35209;51.050;13.678;2023-05-11T23:00:48;99931.53;;;15.28;61.76
49341;BME280;35209;51.050;13.678;2023-05-11T23:05:55;99927.84;;;14.80;64.16
49341;BME280;35209;51.050;13.678;2023-05-11T23:10:56;99927.47;;;14.87;63.83
49341;BME280;35209;51.050;13.678;2023-05-11T23:15:58;99924.63;;;15.08;61.89
49341;BME280;35209;51.050;13.678;2023-05-11T23:21:00;99923.78;;;14.90;62.70
49341;BME280;35209;51.050;13.678;2023-05-11T23:26:02;99922.06;;;15.06;62.14
49341;BME280;35209;51.050;13.678;2023-05-11T23:31:03;99924.81;;;14.87;63.36
49341;BME280;35209;51.050;13.678;2023-05-11T23:36:05;99913.50;;;14.49;64.83
49341;BME280;35209;51.050;13.678;2023-05-11T23:41:08;99926.31;;;14.39;64.88
49341;BME280;35209;51.050;13.678;2023-05-11T23:46:09;99930.56;;;14.42;66.17
49341;BME280;35209;51.050;13.678;2023-05-11T23:51:11;99936.78;;;14.41;65.84
49341;BME280;35209;51.050;13.678;2023-05-11T23:56:13;99926.09;;;14.44;67.13
